Time;durP1;ratioP1;P1;durP2;ratioP2;P2;SDS_P1;SDS_P2;PMS_P1;PMS_P2;Temp;Humidity;BMP_temperature;BMP_pressure;BME280_temperature;BME280_humidity;BME280_pressure;Samples;Min_cycle;Max_cycle;Signal;HPM_P1;HPM_P2
2022/06/23 00:02:23;;;;;;;4.38;4.18;;;;;;;-143.83;100.00;62900.06;5021196;28;20026;-61
2022/06/23 00:04:52;;;;;;;4.57;4.38;;;;;;;-143.83;100.00;62900.06;5027836;28;20040;-61
2022/06/23 00:07:25;;;;;;;4.45;4.25;;;;;;;-143.83;100.00;62900.06;5033449;28;20026;-61
2022/06/23 00:09:53;;;;;;;4.40;4.20;;;;;;;-143.83;100.00;62900.06;5033456;28;20041;-61
2022/06/23 00:12:18;;;;;;;4.40;4.20;;;;;;;-143.83;100.00;62900.06;5032385;28;20116;-60
2022/06/23 00:14:45;;;;;;;4.45;4.25;;;;;;;-143.83;100.00;62900.06;5048569;28;20413;-61
2022/06/23 00:17:24;;;;;;;4.40;4.20;;;;;;;-143.83;100.00;62900.06;5025142;28;20024;-61
2022/06/23 00:19:50;;;;;;;4.40;4.20;;;;;;;-143.83;100.00;62900.06;5021733;28;20045;-60
2022/06/23 00:22:19;;;;;;;4.25;4.10;;;;;;;-143.83;100.00;62900.06;5033704;28;20025;-60
2022/06/23 00:24:48;;;;;;;4.40;4.20;;;;;;;-143.83;100.00;62900.06;5032308;28;20032;-61
2022/06/23 00:27:18;;;;;;;4.40;4.20;;;;;;;-143.83;100.00;62900.06;5033102;28;20036;-60
2022/06/23 00:29:47;;;;;;;4.40;4.20;;;;;;;-143.83;100.00;62900.06;5019470;28;20033;-61
2022/06/23 00:32:15;;;;;;;4.43;4.22;;;;;;;-143.83;100.00;62900.06;5031836;28;20528;-61
2022/06/23 00:34:52;;;;;;;4.50;4.30;;;;;;;-143.83;100.00;62900.06;5030193;28;20037;-61
2022/06/23 00:37:19;;;;;;;4.53;4.32;;;;;;;-143.83;100.00;62900.06;5033885;28;20064;-60
2022/06/23 00:39:59;;;;;;;4.50;4.30;;;;;;;-143.83;100.00;62900.06;5033452;28;20036;-61
2022/06/23 00:42:27;;;;;;;4.50;4.30;;;;;;;-143.83;100.00;62900.06;5033126;28;20033;-61
2022/06/23 00:45:02;;;;;;;4.60;4.40;;;;;;;-143.83;100.00;62900.06;5031571;28;20540;-61
2022/06/23 00:47:31;;;;;;;;;;;;;;;-143.83;100.00;62900.06;5032608;28;20049;-62
2022/06/23 00:50:32;;;;;;;4.45;4.25;;;;;;;-143.83;100.00;62900.06;5031998;28;19917;-61
2022/06/23 00:53:13;;;;;;;4.47;4.28;;;;;;;-143.83;100.00;62900.06;5030438;28;20036;-61
2022/06/23 00:55:53;;;;;;;4.38;4.18;;;;;;;-143.83;100.00;62900.06;5033254;28;20033;-61
2022/06/23 00:58:39;;;;;;;4.43;4.22;;;;;;;-143.83;100.00;62900.06;5019375;28;20033;-60
2022/06/23 01:01:28;;;;;;;4.50;4.30;;;;;;;-143.83;100.00;62900.06;5032435;28;20025;-60
2022/06/23 01:04:01;;;;;;;4.38;4.20;;;;;;;-143.83;100.00;62900.06;5032193;28;20040;-62
2022/06/23 01:06:30;;;;;;;4.57;4.38;;;;;;;-143.83;100.00;62900.06;5032363;28;20488;-62
2022/06/23 01:09:21;;;;;;;4.60;4.40;;;;;;;-143.83;100.00;62900.06;5026570;28;20049;-61
2022/06/23 01:12:31;;;;;;;4.50;4.30;;;;;;;-143.83;100.00;62900.06;5033665;28;20041;-61
2022/06/23 01:15:15;;;;;;;4.40;4.20;;;;;;;-143.83;100.00;62900.06;5032166;28;20025;-61
2022/06/23 01:17:47;;;;;;;4.50;4.30;;;;;;;-143.83;100.00;62900.06;5023250;28;20026;-60
2022/06/23 01:20:22;;;;;;;4.50;4.30;;;;;;;-143.83;100.00;62900.06;5031233;28;20029;-61
2022/06/23 01:22:50;;;;;;;4.57;4.38;;;;;;;-143.83;100.00;62900.06;5027795;28;20033;-61
2022/06/23 01:25:33;;;;;;;4.43;4.22;;;;;;;-143.83;100.00;62900.06;5030598;28;20448;-60
2022/06/23 01:28:17;;;;;;;4.50;4.30;;;;;;;-143.83;100.00;62900.06;5031947;28;20029;-61
2022/06/23 01:31:12;;;;;;;4.50;4.30;;;;;;;-143.83;100.00;62900.06;5022672;28;20025;-61
2022/06/23 01:33:41;;;;;;;4.40;4.20;;;;;;;-143.83;100.00;62900.06;5027072;28;20061;-61
2022/06/23 01:36:17;;;;;;;4.40;4.20;;;;;;;-143.83;100.00;62900.06;5031286;28;20025;-61
2022/06/23 01:39:11;;;;;;;4.50;4.30;;;;;;;-143.83;100.00;62900.06;5031864;28;20036;-60
2022/06/23 01:41:42;;;;;;;4.50;4.30;;;;;;;-143.83;100.00;62900.06;5022981;28;20022;-61
2022/06/23 01:44:46;;;;;;;4.50;4.30;;;;;;;-143.83;100.00;62900.06;5025482;28;20759;-61
2022/06/23 01:47:17;;;;;;;4.40;4.20;;;;;;;-143.83;100.00;62900.06;5028608;28;20456;-62
2022/06/23 01:49:46;;;;;;;4.47;4.28;;;;;;;-143.83;100.00;62900.06;5023956;28;20091;-60
2022/06/23 01:52:18;;;;;;;4.30;4.10;;;;;;;-143.83;100.00;62900.06;5031656;28;20108;-60
2022/06/23 01:54:46;;;;;;;4.45;4.25;;;;;;;-143.83;100.00;62900.06;5029623;28;20032;-60
2022/06/23 01:57:29;;;;;;;4.40;4.20;;;;;;;-143.83;100.00;62900.06;5031805;28;20231;-61
2022/06/23 02:00:07;;;;;;;4.43;4.22;;;;;;;-143.83;100.00;62900.06;5017607;28;20488;-59
2022/06/23 02:02:45;;;;;;;4.30;4.15;;;;;;;-143.83;100.00;62900.06;5025429;28;20054;-61
2022/06/23 02:05:20;;;;;;;4.38;4.20;;;;;;;-143.83;100.00;62900.06;5031567;28;20462;-60
2022/06/23 02:08:25;;;;;;;4.20;4.10;;;;;;;-143.83;100.00;62900.06;5031424;28;20071;-62
2022/06/23 02:11:16;;;;;;;4.40;4.20;;;;;;;-143.83;100.00;62900.06;5029468;28;20471;-61
2022/06/23 02:14:02;;;;;;;4.40;4.20;;;;;;;-143.83;100.00;62900.06;5031459;28;20036;-60
2022/06/23 02:16:33;;;;;;;4.25;4.10;;;;;;;-143.83;100.00;62900.06;5025151;28;20028;-60
2022/06/23 02:19:08;;;;;;;4.18;4.07;;;;;;;-143.83;100.00;62900.06;5031612;28;20025;-61
2022/06/23 02:21:44;;;;;;;4.55;4.35;;;;;;;-143.83;100.00;62900.06;5024565;28;20047;-61
2022/06/23 02:24:30;;;;;;;4.43;4.22;;;;;;;-143.83;100.00;62900.06;5025605;28;20530;-61
2022/06/23 02:27:05;;;;;;;4.18;4.07;;;;;;;-143.83;100.00;62900.06;5027226;28;20032;-60
2022/06/23 02:29:45;;;;;;;4.40;4.20;;;;;;;-143.83;100.00;62900.06;5022876;28;20392;-60
2022/06/23 02:32:17;;;;;;;4.28;4.10;;;;;;;-143.83;100.00;62900.06;5031317;28;20061;-60
2022/06/23 02:34:56;;;;;;;4.25;4.13;;;;;;;-143.83;100.00;62900.06;5032976;28;20473;-61
2022/06/23 02:37:52;;;;;;;4.47;4.28;;;;;;;-143.83;100.00;62900.06;5029015;28;20045;-60
2022/06/23 02:40:26;;;;;;;4.50;4.30;;;;;;;-143.83;100.00;62900.06;5031616;28;20022;-60
2022/06/23 02:43:04;;;;;;;4.50;4.30;;;;;;;-143.83;100.00;62900.06;5028911;28;20033;-61
2022/06/23 02:46:12;;;;;;;4.60;4.40;;;;;;;-143.83;100.00;62900.06;5034087;28;20044;-62
2022/06/23 02:48:55;;;;;;;4.68;4.47;;;;;;;-143.83;100.00;62900.06;5026554;28;20030;-60
2022/06/23 02:51:29;;;;;;;4.90;4.70;;;;;;;-143.83;100.00;62900.06;5022974;28;20097;-60
2022/06/23 02:54:04;;;;;;;;;;;;;;;-143.83;100.00;62900.06;5031084;28;20034;-61
2022/06/23 02:56:40;;;;;;;5.00;4.80;;;;;;;-143.83;100.00;62900.06;5032802;28;19913;-59
2022/06/23 02:59:14;;;;;;;5.10;4.90;;;;;;;-143.83;100.00;62900.06;5034891;28;20038;-61
2022/06/23 03:02:12;;;;;;;5.25;5.05;;;;;;;-143.83;100.00;62900.06;5030999;28;20135;-60
2022/06/23 03:04:55;;;;;;;5.00;4.80;;;;;;;-143.83;100.00;62900.06;5034772;28;20033;-60
2022/06/23 03:07:24;;;;;;;5.30;5.10;;;;;;;-143.83;100.00;62900.06;5034801;28;20033;-59
2022/06/23 03:10:05;;;;;;;5.30;5.10;;;;;;;-143.83;100.00;62900.06;5033949;28;20033;-61
2022/06/23 03:12:36;;;;;;;5.05;4.85;;;;;;;-143.83;100.00;62900.06;5035423;28;20033;-60
2022/06/23 03:15:18;;;;;;;5.38;5.18;;;;;;;-143.83;100.00;62900.06;5034442;28;20029;-61
2022/06/23 03:17:53;;;;;;;5.40;5.20;;;;;;;-143.83;100.00;62900.06;5033439;28;20037;-60
2022/06/23 03:20:44;;;;;;;5.20;5.00;;;;;;;-143.83;100.00;62900.06;5034457;28;20029;-60
2022/06/23 03:23:25;;;;;;;5.20;5.00;;;;;;;-143.83;100.00;62900.06;5031071;28;20026;-59
2022/06/23 03:25:57;;;;;;;5.40;5.20;;;;;;;-143.83;100.00;62900.06;5025197;28;20570;-60
2022/06/23 03:28:39;;;;;;;5.50;5.30;;;;;;;-143.83;100.00;62900.06;5029891;28;20037;-59
2022/06/23 03:31:43;;;;;;;5.40;5.20;;;;;;;-143.83;100.00;62900.06;5021198;28;20056;-61
2022/06/23 03:34:23;;;;;;;5.50;5.30;;;;;;;-143.83;100.00;62900.06;5032915;28;20045;-61
2022/06/23 03:37:12;;;;;;;5.50;5.30;;;;;;;-143.83;100.00;62900.06;5033496;28;20033;-61
2022/06/23 03:43:18;;;;;;;5.40;5.20;;;;;;;-143.83;100.00;62900.06;5007143;28;20075;-60
2022/06/23 03:45:56;;;;;;;5.40;5.20;;;;;;;-143.83;100.00;62900.06;5033816;28;20489;-60
2022/06/23 03:48:41;;;;;;;5.50;5.30;;;;;;;-143.83;100.00;62900.06;5020055;28;20385;-61
2022/06/23 03:51:21;;;;;;;5.40;5.20;;;;;;;-143.83;100.00;62900.06;5024002;28;20508;-60
2022/06/23 03:54:10;;;;;;;5.40;5.20;;;;;;;-143.83;100.00;62900.06;5032953;28;20021;-59
2022/06/23 03:56:47;;;;;;;5.45;5.25;;;;;;;-143.83;100.00;62900.06;5026285;28;20055;-60
2022/06/23 03:59:27;;;;;;;5.40;5.20;;;;;;;-143.83;100.00;62900.06;5020100;28;20507;-61
2022/06/23 04:02:00;;;;;;;5.65;5.45;;;;;;;-143.83;100.00;62900.06;5034738;28;20039;-60
2022/06/23 04:04:59;;;;;;;5.68;5.47;;;;;;;-143.83;100.00;62900.06;5029566;28;20080;-62
2022/06/23 04:07:27;;;;;;;5.80;5.60;;;;;;;-143.83;100.00;62900.06;5033382;28;20497;-62
2022/06/23 04:10:14;;;;;;;5.82;5.63;;;;;;;-143.83;100.00;62900.06;5030981;28;20477;-60
2022/06/23 04:12:48;;;;;;;5.78;5.57;;;;;;;-143.83;100.00;62900.06;5030611;28;20517;-60
2022/06/23 04:15:23;;;;;;;5.78;5.57;;;;;;;-143.83;100.00;62900.06;5025706;28;20057;-60
2022/06/23 04:17:57;;;;;;;5.88;5.68;;;;;;;-143.83;100.00;62900.06;5019978;28;20034;-59
2022/06/23 04:20:39;;;;;;;;;;;;;;;-143.83;100.00;62900.06;5028030;28;20033;-61
2022/06/23 04:23:10;;;;;;;5.70;5.50;;;;;;;-143.83;100.00;62900.06;5030184;28;19917;-61
2022/06/23 04:26:02;;;;;;;5.80;5.60;;;;;;;-143.83;100.00;62900.06;5033712;28;20734;-61
2022/06/23 04:28:50;;;;;;;5.78;5.57;;;;;;;-143.83;100.00;62900.06;5031596;28;20029;-62
2022/06/23 04:31:24;;;;;;;5.80;5.60;;;;;;;-143.83;100.00;62900.06;5020517;28;20052;-61
2022/06/23 04:33:50;;;;;;;6.00;5.80;;;;;;;-143.83;100.00;62900.06;5027371;28;20017;-62
2022/06/23 04:36:25;;;;;;;5.90;5.70;;;;;;;-143.83;100.00;62900.06;5024150;28;20370;-61
2022/06/23 04:39:01;;;;;;;5.95;5.75;;;;;;;-143.83;100.00;62900.06;5033879;28;20028;-61
2022/06/23 04:41:35;;;;;;;6.07;5.88;;;;;;;-143.83;100.00;62900.06;5020253;28;20023;-60
2022/06/23 04:44:06;;;;;;;6.20;6.00;;;;;;;-143.83;100.00;62900.06;5029648;28;20594;-63
2022/06/23 04:46:41;;;;;;;5.90;5.70;;;;;;;-143.83;100.00;62900.06;5031873;28;20045;-61
2022/06/23 04:49:27;;;;;;;6.10;5.90;;;;;;;-143.83;100.00;62900.06;5029152;28;20409;-61
2022/06/23 04:52:05;;;;;;;6.00;5.80;;;;;;;-143.83;100.00;62900.06;5031214;28;20041;-61
2022/06/23 04:54:48;;;;;;;6.13;5.93;;;;;;;-143.83;100.00;62900.06;5031558;28;20049;-61
2022/06/23 04:57:19;;;;;;;6.03;5.82;;;;;;;-143.83;100.00;62900.06;5031041;28;20022;-62
2022/06/23 04:59:50;;;;;;;6.18;5.97;;;;;;;-143.83;100.00;62900.06;5027821;28;20156;-61
2022/06/23 05:02:32;;;;;;;6.07;5.88;;;;;;;-143.83;100.00;62900.06;5029479;28;20061;-62
2022/06/23 05:05:07;;;;;;;6.00;5.80;;;;;;;-143.83;100.00;62900.06;5030684;28;20421;-62
2022/06/23 05:08:03;;;;;;;5.93;5.72;;;;;;;-143.83;100.00;62900.06;5030658;28;20033;-62
2022/06/23 05:10:43;;;;;;;5.90;5.70;;;;;;;-143.83;100.00;62900.06;5025947;28;20037;-63
2022/06/23 05:13:15;;;;;;;5.80;5.60;;;;;;;-143.83;100.00;62900.06;5020224;28;20075;-61
2022/06/23 05:16:01;;;;;;;5.85;5.65;;;;;;;-143.83;100.00;62900.06;5029298;28;20112;-63
2022/06/23 05:18:31;;;;;;;6.00;5.80;;;;;;;-143.83;100.00;62900.06;5015926;28;20041;-63
2022/06/23 05:21:05;;;;;;;6.10;5.90;;;;;;;-143.83;100.00;62900.06;5024624;28;20040;-62
2022/06/23 05:23:43;;;;;;;6.13;5.93;;;;;;;-143.83;100.00;62900.06;5027774;28;20029;-61
2022/06/23 05:26:17;;;;;;;6.15;5.95;;;;;;;-143.83;100.00;62900.06;5028292;28;20032;-62
2022/06/23 05:28:44;;;;;;;6.10;5.90;;;;;;;-143.83;100.00;62900.06;5027721;28;20104;-62
2022/06/23 05:31:21;;;;;;;6.00;5.80;;;;;;;-143.83;100.00;62900.06;5028797;28;20080;-61
2022/06/23 05:33:50;;;;;;;6.18;5.97;;;;;;;-143.83;100.00;62900.06;5024721;28;20083;-62
2022/06/23 05:36:31;;;;;;;6.10;5.90;;;;;;;-143.83;100.00;62900.06;5026544;28;20518;-63
2022/06/23 05:39:02;;;;;;;5.82;5.63;;;;;;;-143.83;100.00;62900.06;5027487;28;20036;-63
2022/06/23 05:41:38;;;;;;;5.90;5.70;;;;;;;-143.83;100.00;62900.06;5020401;28;20025;-63
2022/06/23 05:44:13;;;;;;;6.00;5.80;;;;;;;-143.83;100.00;62900.06;5028458;28;20095;-62
2022/06/23 05:46:41;;;;;;;6.00;5.80;;;;;;;-143.83;100.00;62900.06;5030217;28;20021;-63
2022/06/23 05:49:25;;;;;;;6.10;5.90;;;;;;;-143.83;100.00;62900.06;5031647;28;20049;-62
2022/06/23 05:51:55;;;;;;;6.18;5.97;;;;;;;-143.83;100.00;62900.06;5030700;28;20473;-62
2022/06/23 05:54:28;;;;;;;6.13;5.93;;;;;;;-143.83;100.00;62900.06;5028811;28;20029;-61
2022/06/23 05:57:00;;;;;;;5.95;5.75;;;;;;;-143.83;100.00;62900.06;5022028;28;20063;-62
2022/06/23 05:59:53;;;;;;;5.80;5.60;;;;;;;-143.83;100.00;62900.06;5025301;28;20031;-62
2022/06/23 06:02:30;;;;;;;6.00;5.80;;;;;;;-143.83;100.00;62900.06;5029141;28;20636;-63
2022/06/23 06:04:58;;;;;;;5.90;5.70;;;;;;;-143.83;100.00;62900.06;5013295;28;20040;-64
2022/06/23 06:07:39;;;;;;;5.80;5.60;;;;;;;-143.83;100.00;62900.06;5036156;28;20485;-63
2022/06/23 06:10:12;;;;;;;5.75;5.55;;;;;;;-143.83;100.00;62900.06;5033870;28;20120;-63
2022/06/23 06:12:41;;;;;;;5.80;5.60;;;;;;;-143.83;100.00;62900.06;5032465;28;20029;-62
2022/06/23 06:15:19;;;;;;;5.82;5.63;;;;;;;-143.83;100.00;62900.06;5034472;28;20037;-63
2022/06/23 06:17:45;;;;;;;5.82;5.63;;;;;;;-143.83;100.00;62900.06;5040371;28;20033;-63
2022/06/23 06:20:13;;;;;;;5.97;5.78;;;;;;;-143.83;100.00;62900.06;5036751;28;20078;-63
2022/06/23 06:23:04;;;;;;;6.00;5.80;;;;;;;-143.83;100.00;62900.06;5039653;28;20036;-61
2022/06/23 06:25:38;;;;;;;6.10;5.90;;;;;;;-143.83;100.00;62900.06;5030340;28;20017;-62
2022/06/23 06:28:29;;;;;;;;;;;;;;;-143.83;100.00;62900.06;5039773;28;20044;-60
2022/06/23 06:31:16;;;;;;;6.07;5.88;;;;;;;-143.83;100.00;62900.06;5028521;28;19928;-61
2022/06/23 06:34:01;;;;;;;5.85;5.65;;;;;;;-143.83;100.00;62900.06;5030854;28;20041;-61
2022/06/23 06:36:38;;;;;;;5.78;5.57;;;;;;;-143.83;100.00;62900.06;5041723;28;20120;-61
2022/06/23 06:39:15;;;;;;;6.20;6.00;;;;;;;-143.83;100.00;62900.06;5027085;28;20029;-64
2022/06/23 06:41:45;;;;;;;5.88;5.68;;;;;;;-143.83;100.00;62900.06;5034601;28;20072;-61
2022/06/23 06:44:12;;;;;;;5.93;5.72;;;;;;;-143.83;100.00;62900.06;5036672;28;20032;-63
2022/06/23 06:46:39;;;;;;;6.07;5.88;;;;;;;-143.83;100.00;62900.06;5036379;28;20108;-62
2022/06/23 06:49:06;;;;;;;6.00;5.80;;;;;;;-143.83;100.00;62900.06;5036050;28;20049;-62
2022/06/23 06:51:32;;;;;;;5.93;5.72;;;;;;;-143.83;100.00;62900.06;5036940;28;20030;-62
2022/06/23 06:54:31;;;;;;;5.72;5.53;;;;;;;-143.83;100.00;62900.06;5037339;28;20071;-62
2022/06/23 06:57:04;;;;;;;5.80;5.60;;;;;;;-143.83;100.00;62900.06;5023036;28;20060;-63
2022/06/23 06:59:50;;;;;;;5.90;5.70;;;;;;;-143.83;100.00;62900.06;5036684;28;20511;-61
2022/06/23 07:02:25;;;;;;;5.93;5.72;;;;;;;-143.83;100.00;62900.06;5037327;28;20053;-62
2022/06/23 07:05:10;;;;;;;5.90;5.70;;;;;;;-143.83;100.00;62900.06;5037463;28;20022;-62
2022/06/23 07:07:42;;;;;;;6.10;5.90;;;;;;;-143.83;100.00;62900.06;5037221;28;20029;-62
2022/06/23 07:10:22;;;;;;;5.70;5.50;;;;;;;-143.83;100.00;62900.06;5036991;28;20064;-62
2022/06/23 07:12:55;;;;;;;5.70;5.50;;;;;;;-143.83;100.00;62900.06;5037426;28;20156;-62
2022/06/23 07:15:38;;;;;;;5.93;5.72;;;;;;;-143.83;100.00;62900.06;5037664;28;20053;-63
2022/06/23 07:18:04;;;;;;;6.10;5.90;;;;;;;-143.83;100.00;62900.06;5025944;28;20044;-63
2022/06/23 07:21:11;;;;;;;6.40;6.10;;;;;;;-143.83;100.00;62900.06;5034613;28;20022;-62
2022/06/23 07:23:52;;;;;;;5.60;5.40;;;;;;;-143.83;100.00;62900.06;5027768;28;20102;-62
2022/06/23 07:26:49;;;;;;;5.55;5.35;;;;;;;-143.83;100.00;62900.06;5034210;28;20565;-62
2022/06/23 07:29:33;;;;;;;5.60;5.40;;;;;;;-143.83;100.00;62900.06;5034520;28;20032;-63
2022/06/23 07:32:29;;;;;;;5.90;5.70;;;;;;;-143.83;100.00;62900.06;5034281;28;20400;-62
2022/06/23 07:35:06;;;;;;;5.60;5.40;;;;;;;-143.83;100.00;62900.06;5022049;28;20026;-61
2022/06/23 07:37:37;;;;;;;5.70;5.50;;;;;;;-143.83;100.00;62900.06;5034015;28;20505;-63
2022/06/23 07:40:06;;;;;;;5.45;5.25;;;;;;;-143.83;100.00;62900.06;5033773;28;20036;-61
2022/06/23 07:42:49;;;;;;;5.50;5.30;;;;;;;-143.83;100.00;62900.06;5031660;28;20021;-61
2022/06/23 07:45:25;;;;;;;5.50;5.30;;;;;;;-143.83;100.00;62900.06;5032887;28;20681;-62
2022/06/23 07:47:51;;;;;;;5.40;5.20;;;;;;;-143.83;100.00;62900.06;5034422;28;20028;-62
2022/06/23 07:50:16;;;;;;;5.47;5.28;;;;;;;-143.83;100.00;62900.06;5032853;28;20080;-62
2022/06/23 07:52:44;;;;;;;5.50;5.30;;;;;;;-143.83;100.00;62900.06;5033478;28;20130;-62
2022/06/23 07:55:19;;;;;;;5.43;5.22;;;;;;;-143.83;100.00;62900.06;5020555;28;20032;-62
2022/06/23 07:57:44;;;;;;;5.53;5.32;;;;;;;-143.83;100.00;62900.06;5033516;28;20029;-62
2022/06/23 08:00:10;;;;;;;5.60;5.40;;;;;;;-143.83;100.00;62900.06;5033542;28;20029;-61
2022/06/23 08:02:48;;;;;;;5.65;5.45;;;;;;;-143.83;100.00;62900.06;5033705;28;20021;-62
2022/06/23 08:05:20;;;;;;;5.68;5.47;;;;;;;-143.83;100.00;62900.06;5033811;28;20033;-62
2022/06/23 08:07:46;;;;;;;5.80;5.60;;;;;;;-143.83;100.00;62900.06;5032713;28;20358;-62
2022/06/23 08:10:17;;;;;;;5.70;5.50;;;;;;;-143.83;100.00;62900.06;5033441;28;20042;-62
2022/06/23 08:12:53;;;;;;;5.80;5.60;;;;;;;-143.83;100.00;62900.06;5033685;28;20468;-61
2022/06/23 08:18:53;;;;;;;5.93;5.72;;;;;;;-143.83;100.00;62900.06;5028724;28;20028;-62
2022/06/23 08:21:29;;;;;;;5.78;5.57;;;;;;;-143.83;100.00;62900.06;5032711;28;20112;-61
2022/06/23 08:24:03;;;;;;;5.72;5.53;;;;;;;-143.83;100.00;62900.06;5032281;28;20025;-63
2022/06/23 08:26:30;;;;;;;5.70;5.50;;;;;;;-143.83;100.00;62900.06;5033318;28;20452;-62
2022/06/23 08:29:02;;;;;;;5.82;5.63;;;;;;;-143.83;100.00;62900.06;5035829;28;20068;-62
2022/06/23 08:31:29;;;;;;;5.80;5.60;;;;;;;-143.83;100.00;62900.06;5032908;28;20432;-62
2022/06/23 08:33:58;;;;;;;5.70;5.50;;;;;;;-143.83;100.00;62900.06;5033269;28;20025;-61
2022/06/23 08:36:32;;;;;;;5.80;5.60;;;;;;;-143.83;100.00;62900.06;5032604;28;20029;-62
2022/06/23 08:39:04;;;;;;;5.60;5.40;;;;;;;-143.83;100.00;62900.06;5032475;28;20025;-61
2022/06/23 08:42:02;;;;;;;5.72;5.53;;;;;;;-143.83;100.00;62900.06;5032069;28;20045;-62
2022/06/23 08:44:57;;;;;;;5.53;5.32;;;;;;;-143.83;100.00;62900.06;5019063;28;20543;-62
2022/06/23 08:47:36;;;;;;;5.70;5.50;;;;;;;-143.83;100.00;62900.06;5032844;28;20039;-62
2022/06/23 08:50:12;;;;;;;5.80;5.60;;;;;;;-143.83;100.00;62900.06;5032558;28;20136;-63
2022/06/23 08:52:50;;;;;;;5.55;5.35;;;;;;;-143.83;100.00;62900.06;5032623;28;20037;-63
2022/06/23 08:55:52;;;;;;;5.80;5.60;;;;;;;-143.83;100.00;62900.06;5032389;28;20036;-62
2022/06/23 08:58:20;;;;;;;5.53;5.32;;;;;;;-143.83;100.00;62900.06;5022046;28;20045;-63
2022/06/23 09:01:10;;;;;;;5.78;5.57;;;;;;;-143.83;100.00;62900.06;5032251;28;20018;-62
2022/06/23 09:04:03;;;;;;;5.68;5.47;;;;;;;-143.83;100.00;62900.06;5032198;28;20026;-62
2022/06/23 09:06:52;;;;;;;5.50;5.30;;;;;;;-143.83;100.00;62900.06;5032226;28;20037;-62
2022/06/23 09:09:51;;;;;;;5.43;5.22;;;;;;;-143.83;100.00;62900.06;5032530;28;20029;-63
2022/06/23 09:12:33;;;;;;;5.50;5.30;;;;;;;-143.83;100.00;62900.06;5029090;28;20038;-62
2022/06/23 09:15:25;;;;;;;5.60;5.40;;;;;;;-143.83;100.00;62900.06;5025025;28;20042;-62
2022/06/23 09:18:05;;;;;;;5.60;5.40;;;;;;;-143.83;100.00;62900.06;5020569;28;20033;-62
2022/06/23 09:21:03;;;;;;;5.50;5.30;;;;;;;-143.83;100.00;62900.06;5032353;28;20026;-63
2022/06/23 09:23:46;;;;;;;5.45;5.25;;;;;;;-143.83;100.00;62900.06;4996622;28;20346;-62
2022/06/23 09:26:14;;;;;;;5.50;5.30;;;;;;;-143.83;100.00;62900.06;5031924;28;20102;-62
2022/06/23 09:28:56;;;;;;;5.43;5.22;;;;;;;-143.83;100.00;62900.06;5023193;28;21055;-62
2022/06/23 09:31:49;;;;;;;5.63;5.43;;;;;;;-143.83;100.00;62900.06;5031139;28;20393;-63
2022/06/23 09:34:56;;;;;;;5.45;5.25;;;;;;;-143.83;100.00;62900.06;5024832;28;20021;-62
2022/06/23 09:37:43;;;;;;;5.43;5.22;;;;;;;-143.83;100.00;62900.06;5033181;28;20047;-62
2022/06/23 09:40:17;;;;;;;5.55;5.35;;;;;;;-143.83;100.00;62900.06;5031602;28;20115;-62
2022/06/23 09:42:53;;;;;;;5.60;5.40;;;;;;;-143.83;100.00;62900.06;5021906;28;20064;-63
2022/06/23 09:45:41;;;;;;;5.50;5.30;;;;;;;-143.83;100.00;62900.06;5020511;28;20132;-62
2022/06/23 09:48:25;;;;;;;5.40;5.20;;;;;;;-143.83;100.00;62900.06;5021139;28;20132;-62
2022/06/23 09:51:11;;;;;;;5.45;5.25;;;;;;;-143.83;100.00;62900.06;5029401;28;20050;-63
2022/06/23 09:53:46;;;;;;;5.40;5.20;;;;;;;-143.83;100.00;62900.06;5032559;28;20068;-63
2022/06/23 09:56:14;;;;;;;5.35;5.15;;;;;;;-143.83;100.00;62900.06;5021737;28;20152;-61
2022/06/23 09:58:46;;;;;;;5.30;5.10;;;;;;;-143.83;100.00;62900.06;5031565;28;20138;-61
2022/06/23 10:01:30;;;;;;;5.50;5.30;;;;;;;-143.83;100.00;62900.06;5029023;28;20033;-62
2022/06/23 10:04:33;;;;;;;5.40;5.20;;;;;;;-143.83;100.00;62900.06;5026754;28;20115;-62
2022/06/23 10:07:19;;;;;;;5.50;5.30;;;;;;;-143.83;100.00;62900.06;5022478;28;20676;-63
2022/06/23 10:10:12;;;;;;;5.43;5.22;;;;;;;-143.83;100.00;62900.06;5031682;28;20045;-63
2022/06/23 10:12:47;;;;;;;5.40;5.20;;;;;;;-143.83;100.00;62900.06;5016060;28;21748;-64
2022/06/23 10:15:54;;;;;;;5.40;5.20;;;;;;;-143.83;100.00;62900.06;5019909;28;20034;-64
2022/06/23 10:18:35;;;;;;;5.50;5.30;;;;;;;-143.83;100.00;62900.06;5022843;28;20045;-62
2022/06/23 10:21:39;;;;;;;5.30;5.10;;;;;;;-143.83;100.00;62900.06;5019917;28;20056;-63
2022/06/23 10:24:23;;;;;;;5.30;5.10;;;;;;;-143.83;100.00;62900.06;5019493;28;20033;-62
2022/06/23 10:27:27;;;;;;;5.40;5.20;;;;;;;-143.83;100.00;62900.06;5021879;28;20589;-63
2022/06/23 10:29:59;;;;;;;5.38;5.18;;;;;;;-143.83;100.00;62900.06;5000766;28;20052;-62
2022/06/23 10:32:42;;;;;;;5.30;5.10;;;;;;;-143.83;100.00;62900.06;5028202;28;20036;-64
2022/06/23 10:35:36;;;;;;;5.28;5.07;;;;;;;-143.83;100.00;62900.06;5031337;28;20523;-62
2022/06/23 10:38:17;;;;;;;5.30;5.10;;;;;;;-143.83;100.00;62900.06;5029494;28;20041;-64
2022/06/23 10:40:51;;;;;;;5.18;4.97;;;;;;;-143.83;100.00;62900.06;5020770;28;20403;-62
2022/06/23 10:43:49;;;;;;;5.30;5.10;;;;;;;-143.83;100.00;62900.06;5020339;28;20489;-63
2022/06/23 10:46:53;;;;;;;5.50;5.30;;;;;;;-143.83;100.00;62900.06;4967383;28;20137;-62
2022/06/23 10:49:33;;;;;;;5.25;5.05;;;;;;;-143.83;100.00;62900.06;5001292;28;20054;-62
2022/06/23 10:52:10;;;;;;;5.38;5.18;;;;;;;-143.83;100.00;62900.06;5015703;28;20044;-61
2022/06/23 10:54:48;;;;;;;5.50;5.30;;;;;;;-143.83;100.00;62900.06;5023401;28;20612;-62
2022/06/23 10:57:44;;;;;;;5.50;5.30;;;;;;;-143.83;100.00;62900.06;5022294;28;20033;-62
2022/06/23 11:00:17;;;;;;;5.30;5.10;;;;;;;-143.83;100.00;62900.06;5025209;28;20443;-63
2022/06/23 11:03:33;;;;;;;5.30;5.10;;;;;;;-143.83;100.00;62900.06;5027169;28;20125;-62
2022/06/23 11:06:20;;;;;;;5.30;5.10;;;;;;;-143.83;100.00;62900.06;4984902;28;20038;-62
2022/06/23 11:09:03;;;;;;;5.38;5.18;;;;;;;-143.83;100.00;62900.06;5026909;28;20060;-63
2022/06/23 11:11:32;;;;;;;5.50;5.30;;;;;;;-143.83;100.00;62900.06;5024683;28;20044;-61
2022/06/23 11:13:58;;;;;;;5.40;5.20;;;;;;;-143.83;100.00;62900.06;5025747;28;20044;-61
2022/06/23 11:16:44;;;;;;;5.30;5.10;;;;;;;-143.83;100.00;62900.06;5029714;28;20535;-63
2022/06/23 11:19:30;;;;;;;5.40;5.20;;;;;;;-143.83;100.00;62900.06;5026817;28;20041;-62
2022/06/23 11:21:57;;;;;;;5.40;5.20;;;;;;;-143.83;100.00;62900.06;5027781;28;20025;-63
2022/06/23 11:24:43;;;;;;;5.50;5.30;;;;;;;-143.83;100.00;62900.06;5020229;28;20052;-62
2022/06/23 11:27:15;;;;;;;5.40;5.20;;;;;;;-143.83;100.00;62900.06;5032356;28;20048;-63
2022/06/23 11:30:08;;;;;;;5.20;5.00;;;;;;;-143.83;100.00;62900.06;5031413;28;20057;-63
2022/06/23 11:32:40;;;;;;;5.22;5.03;;;;;;;-143.83;100.00;62900.06;5024682;28;20048;-63
2022/06/23 11:35:11;;;;;;;5.22;5.03;;;;;;;-143.83;100.00;62900.06;5027406;28;20029;-63
2022/06/23 11:38:03;;;;;;;5.18;4.97;;;;;;;-143.83;100.00;62900.06;5029544;28;20124;-63
2022/06/23 11:40:38;;;;;;;5.05;4.85;;;;;;;-143.83;100.00;62900.06;5028173;28;20156;-62
2022/06/23 11:43:12;;;;;;;5.30;5.10;;;;;;;-143.83;100.00;62900.06;5013264;28;20046;-61
2022/06/23 11:45:55;;;;;;;5.22;5.03;;;;;;;-143.83;100.00;62900.06;5028820;28;20033;-63
2022/06/23 11:48:41;;;;;;;5.20;5.00;;;;;;;-143.83;100.00;62900.06;5025706;28;20056;-61
2022/06/23 11:51:32;;;;;;;5.22;5.03;;;;;;;-143.83;100.00;62900.06;5026454;28;20053;-61
2022/06/23 11:54:28;;;;;;;5.15;4.95;;;;;;;-143.83;100.00;62900.06;5031495;28;20023;-62
2022/06/23 11:57:32;;;;;;;5.25;5.05;;;;;;;-143.83;100.00;62900.06;5021081;28;20128;-63
2022/06/23 12:00:07;;;;;;;5.20;5.00;;;;;;;-143.83;100.00;62900.06;5014173;28;20049;-63
2022/06/23 12:02:43;;;;;;;5.25;5.05;;;;;;;-143.83;100.00;62900.06;5017313;28;20060;-62
2022/06/23 12:05:20;;;;;;;5.30;5.10;;;;;;;-143.83;100.00;62900.06;5022809;28;20068;-61
2022/06/23 12:08:01;;;;;;;5.45;5.25;;;;;;;-143.83;100.00;62900.06;5016814;28;20482;-61
2022/06/23 12:10:29;;;;;;;5.28;5.07;;;;;;;-143.83;100.00;62900.06;5029192;28;20034;-63
2022/06/23 12:12:59;;;;;;;5.32;5.13;;;;;;;-143.83;100.00;62900.06;5030018;28;20598;-62